Laws, California
Current Conditions -  °F | °C
As of 12:56 AM on Saturday 22 Nov 2014 (Local Time) from KBIH Reporting Station
Clear Clear  
Wind Chill: 26°   Ceiling: Unl
Heat Index: 33°   Visibility: 10mi
Dew Point: 13°   Wind: 8mph
Humidity: 43%   Direction: 350°N
Pressure: 30.11"   Gusts: NA
Location:  37.4772°N, 118.401°W
Report Text: KBIH 220856Z AUTO 35007KT 10SM CLR 01/M11 A3011 RMK AO2 SLP180 T00061106 53003
Loading
Personal Weather Stations






























Interactive Weather Map New forecast layout! Learn more

10-Day Weather Forecast

Advertisements
Track Severe Weather on mobile